Time;durP1;ratioP1;P1;durP2;ratioP2;P2;SDS_P1;SDS_P2;PMS_P1;PMS_P2;Temp;Humidity;BMP_temperature;BMP_pressure;BME280_temperature;BME280_humidity;BME280_pressure;Samples;Min_cycle;Max_cycle;Signal;HPM_P1;HPM_P2
2022/08/15 00:00:35;;;;;;;15.48;8.82;;;;;;;21.46;60.92;99940.75;5030845;28;20063;-58
2022/08/15 00:03:03;;;;;;;11.18;9.00;;;;;;;21.43;61.09;99934.88;5033089;28;20045;-58
2022/08/15 00:05:33;;;;;;;13.00;8.73;;;;;;;21.23;61.09;99915.19;5032792;28;20049;-56
2022/08/15 00:07:59;;;;;;;9.98;8.77;;;;;;;21.39;61.28;99938.69;5031735;28;20087;-58
2022/08/15 00:10:26;;;;;;;13.50;9.18;;;;;;;21.37;61.49;99946.75;5032207;28;20029;-58
2022/08/15 00:12:52;;;;;;;16.08;8.93;;;;;;;21.35;61.61;99940.75;5032196;28;20077;-58
2022/08/15 00:15:19;;;;;;;11.68;8.50;;;;;;;21.35;61.43;99947.84;5017558;28;20600;-58
2022/08/15 00:17:48;;;;;;;16.63;9.25;;;;;;;21.34;61.41;99947.00;5013458;28;20033;-58
2022/08/15 00:20:15;;;;;;;11.73;8.48;;;;;;;21.34;61.62;99943.50;5030896;28;20517;-57
2022/08/15 00:22:49;;;;;;;14.35;8.70;;;;;;;21.34;61.80;99949.63;5032480;28;20073;-59
2022/08/15 00:25:16;;;;;;;12.43;8.45;;;;;;;21.27;61.79;99934.31;5064174;28;20037;-56
2022/08/15 00:27:43;;;;;;;10.68;8.52;;;;;;;21.31;61.78;99959.56;5030485;28;20049;-58
2022/08/15 00:30:11;;;;;;;12.87;8.63;;;;;;;21.00;61.87;99902.78;5030447;28;20099;-57
2022/08/15 00:32:38;;;;;;;10.43;8.57;;;;;;;21.29;62.01;99964.16;5029003;28;20330;-58
2022/08/15 00:35:36;;;;;;;16.17;8.82;;;;;;;21.27;62.01;99952.84;5032409;28;20052;-57
2022/08/15 00:37:55;;;;;;;15.82;8.98;;;;;;;21.25;62.21;99952.94;5031986;28;20367;-57
2022/08/15 00:40:24;;;;;;;13.90;8.40;;;;;;;21.25;62.26;99952.13;5030553;28;20892;-58
2022/08/15 00:42:50;;;;;;;13.20;9.02;;;;;;;21.25;62.29;99950.28;5030289;28;20072;-58
2022/08/15 00:45:17;;;;;;;14.60;8.90;;;;;;;21.26;62.33;99951.13;5017851;28;20052;-58
2022/08/15 00:48:41;;;;;;;12.23;9.60;;;;;;;20.93;62.35;99897.13;5012701;28;20038;-58
2022/08/15 00:50:30;;;;;;;13.07;10.32;;;;;;;21.25;62.36;99955.56;5031179;28;20284;-58
2022/08/15 00:52:56;;;;;;;13.73;9.70;;;;;;;21.24;62.34;99955.72;5031567;28;20071;-58
2022/08/15 00:55:22;;;;;;;15.70;9.40;;;;;;;21.23;62.65;99964.59;5031818;28;20040;-58
2022/08/15 00:57:48;;;;;;;15.77;9.20;;;;;;;21.23;62.62;99959.31;5030132;28;20048;-58
2022/08/15 01:00:20;;;;;;;12.80;9.20;;;;;;;21.19;62.67;99956.06;5016562;28;20052;-58
2022/08/15 01:02:46;;;;;;;13.55;9.60;;;;;;;21.19;62.92;99957.84;5030884;28;20136;-58
2022/08/15 01:05:13;;;;;;;15.30;10.13;;;;;;;21.17;63.14;99965.06;5030334;28;20597;-57
2022/08/15 01:07:42;;;;;;;12.57;9.85;;;;;;;21.10;63.20;99959.31;5030640;28;20057;-57
2022/08/15 01:10:08;;;;;;;;;;;;;;;21.12;63.35;99963.56;5030712;28;20159;-57
2022/08/15 01:12:36;;;;;;;14.27;10.00;;;;;;;21.08;63.29;99970.03;5031037;28;20016;-57
2022/08/15 01:15:08;;;;;;;15.85;9.90;;;;;;;21.06;63.57;99966.66;5012676;28;20437;-56
2022/08/15 01:17:34;;;;;;;15.48;10.32;;;;;;;20.83;63.57;99937.56;5030361;28;20505;-57
2022/08/15 01:20:23;;;;;;;17.73;10.32;;;;;;;21.02;63.73;99975.78;5031233;28;20045;-57
2022/08/15 01:22:58;;;;;;;16.70;10.48;;;;;;;21.00;63.74;99968.88;5012507;28;20128;-58
2022/08/15 01:25:30;;;;;;;16.15;10.38;;;;;;;20.98;63.89;99969.03;5005912;28;20041;-57
2022/08/15 01:28:04;;;;;;;17.35;10.02;;;;;;;20.94;64.07;99971.97;5019203;28;20055;-56
2022/08/15 01:30:42;;;;;;;16.48;10.40;;;;;;;20.75;64.11;99945.19;5029186;28;20048;-58
2022/08/15 01:33:09;;;;;;;17.13;10.27;;;;;;;20.89;64.06;99974.09;5029883;28;20826;-58
2022/08/15 01:35:37;;;;;;;14.85;10.35;;;;;;;20.72;64.42;99946.28;5014840;28;20132;-58
2022/08/15 01:38:04;;;;;;;17.35;11.00;;;;;;;20.79;64.19;99967.78;5010409;28;20057;-57
2022/08/15 01:40:54;;;;;;;20.05;10.52;;;;;;;20.81;64.85;99966.75;5009709;28;20053;-57
2022/08/15 01:43:24;;;;;;;15.65;10.68;;;;;;;20.78;64.85;99976.69;5022588;28;20081;-57
2022/08/15 01:45:51;;;;;;;15.07;10.50;;;;;;;20.75;65.02;99972.47;5042831;28;20421;-58
2022/08/15 01:48:25;;;;;;;14.93;11.30;;;;;;;20.71;65.28;99977.13;5029088;28;20038;-56
2022/08/15 01:51:00;;;;;;;17.67;10.25;;;;;;;20.68;65.50;99981.78;5012893;28;20046;-58
2022/08/15 01:53:43;;;;;;;18.35;11.70;;;;;;;20.64;65.37;99983.81;5014102;28;20094;-56
2022/08/15 01:56:23;;;;;;;16.50;10.55;;;;;;;20.62;65.54;99990.97;5011223;28;20478;-56
2022/08/15 01:58:49;;;;;;;18.90;11.10;;;;;;;20.62;65.55;99993.63;5011002;28;20052;-58
2022/08/15 02:01:21;;;;;;;18.90;12.32;;;;;;;20.59;65.84;99991.22;5022180;28;20521;-58
2022/08/15 02:03:48;;;;;;;18.35;11.70;;;;;;;20.62;65.97;99987.53;5028664;28;20045;-58
2022/08/15 02:06:28;;;;;;;18.85;11.27;;;;;;;20.62;65.96;99987.53;4993575;28;20078;-58
2022/08/15 02:08:56;;;;;;;22.05;11.68;;;;;;;20.61;66.08;99994.59;5030292;28;20044;-57
2022/08/15 02:11:27;;;;;;;16.48;11.27;;;;;;;20.62;66.15;99995.44;5029412;28;20042;-57
2022/08/15 02:13:54;;;;;;;14.15;10.70;;;;;;;20.61;66.25;99991.94;5028028;28;20063;-57
2022/08/15 02:16:24;;;;;;;16.83;12.10;;;;;;;20.60;66.48;99992.91;5025940;28;20044;-57
2022/08/15 02:18:52;;;;;;;13.32;10.60;;;;;;;20.59;66.46;99991.22;5010821;28;20037;-58
2022/08/15 02:21:19;;;;;;;19.08;11.43;;;;;;;20.59;66.55;99996.50;4992969;28;20044;-59
2022/08/15 02:23:46;;;;;;;16.20;11.60;;;;;;;20.59;66.75;99999.13;5009264;28;20046;-57
2022/08/15 02:26:14;;;;;;;15.65;11.48;;;;;;;20.60;66.81;99999.97;5028847;28;20064;-58
2022/08/15 02:28:41;;;;;;;17.50;10.77;;;;;;;20.60;66.99;99990.25;5028231;28;20076;-57
2022/08/15 02:31:11;;;;;;;18.52;11.32;;;;;;;20.60;67.11;99992.06;5028897;28;20053;-58
2022/08/15 02:33:38;;;;;;;16.35;11.20;;;;;;;20.47;67.28;99976.22;5014249;28;20042;-59
2022/08/15 02:36:04;;;;;;;16.05;10.98;;;;;;;20.60;67.36;100006.13;5025860;28;20037;-58
2022/08/15 02:38:31;;;;;;;17.85;11.48;;;;;;;20.62;67.45;100011.28;5010473;28;20044;-57
2022/08/15 02:40:58;;;;;;;16.00;11.50;;;;;;;20.43;67.45;99977.38;5025532;28;20053;-57
2022/08/15 02:43:25;;;;;;;16.35;11.07;;;;;;;20.59;67.44;100009.69;5028229;28;20068;-58
2022/08/15 02:45:51;;;;;;;19.23;12.05;;;;;;;20.60;67.53;100015.84;5027364;28;20128;-58
2022/08/15 02:48:18;;;;;;;18.15;12.07;;;;;;;20.56;67.77;99999.38;5029587;28;20596;-58
2022/08/15 02:50:49;;;;;;;19.60;12.05;;;;;;;20.63;67.83;100013.81;5029079;28;20053;-58
2022/08/15 02:53:17;;;;;;;15.80;12.18;;;;;;;20.63;67.73;100011.16;5012151;28;20065;-58
2022/08/15 02:55:46;;;;;;;17.45;12.30;;;;;;;20.62;67.77;100017.41;5012617;28;20045;-58
2022/08/15 02:58:13;;;;;;;16.30;11.45;;;;;;;20.66;67.94;100021.53;5028422;28;20426;-58
2022/08/15 03:00:41;;;;;;;22.02;12.25;;;;;;;20.67;67.85;100019.75;5026096;28;20049;-58
2022/08/15 03:03:12;;;;;;;17.02;12.05;;;;;;;20.68;67.93;100021.41;5030235;28;20037;-58
2022/08/15 03:05:42;;;;;;;19.95;12.13;;;;;;;20.69;67.99;100023.94;5012625;28;20045;-59
2022/08/15 03:08:08;;;;;;;21.45;12.90;;;;;;;20.70;68.13;100016.88;5045049;28;20041;-58
2022/08/15 03:10:36;;;;;;;17.50;12.57;;;;;;;20.67;68.04;100004.72;5030272;28;20095;-57
2022/08/15 03:13:06;;;;;;;15.30;11.65;;;;;;;20.78;67.75;100025.09;5026051;28;20598;-58
2022/08/15 03:15:40;;;;;;;21.63;13.50;;;;;;;20.79;67.71;100012.72;5027081;28;20049;-59
2022/08/15 03:18:06;;;;;;;20.58;13.00;;;;;;;20.68;67.91;100003.75;5018948;28;20061;-58
2022/08/15 03:20:33;;;;;;;16.75;12.75;;;;;;;20.86;67.61;100019.28;5031853;28;20049;-58
2022/08/15 03:22:59;;;;;;;17.35;12.85;;;;;;;20.73;67.64;99997.31;5013754;28;20045;-58
2022/08/15 03:25:28;;;;;;;22.15;13.38;;;;;;;20.91;67.69;100019.78;5012558;28;20041;-57
2022/08/15 03:27:55;;;;;;;22.20;13.40;;;;;;;20.93;67.52;100025.81;5029347;28;20560;-58
2022/08/15 03:30:21;;;;;;;23.70;13.63;;;;;;;20.94;67.57;100030.97;5030503;28;20054;-58
2022/08/15 03:32:53;;;;;;;18.35;12.60;;;;;;;20.95;67.50;100024.75;5032166;28;20056;-57
2022/08/15 03:35:23;;;;;;;18.85;13.48;;;;;;;20.96;67.41;100018.50;5032083;28;20610;-58
2022/08/15 03:37:49;;;;;;;19.00;14.03;;;;;;;20.97;67.38;100025.47;5031523;28;20033;-58
2022/08/15 03:40:15;;;;;;;23.70;13.38;;;;;;;21.02;67.28;100035.72;5032173;28;20521;-58
2022/08/15 03:42:59;;;;;;;19.65;13.07;;;;;;;21.04;67.29;100039.94;5031633;28;20049;-58
2022/08/15 03:45:26;;;;;;;20.30;12.98;;;;;;;21.08;67.11;100019.44;5028385;28;20538;-57
2022/08/15 03:47:53;;;;;;;20.05;13.10;;;;;;;21.10;67.15;100025.44;5015151;28;20045;-58
2022/08/15 03:50:21;;;;;;;18.08;13.52;;;;;;;21.13;66.97;100023.44;5031926;28;20038;-58
2022/08/15 03:53:00;;;;;;;22.05;13.85;;;;;;;21.15;66.97;100025.97;5031700;28;20052;-57
2022/08/15 03:55:29;;;;;;;18.42;14.30;;;;;;;21.14;66.98;100025.13;5024236;28;20041;-58
2022/08/15 03:57:56;;;;;;;21.98;14.20;;;;;;;21.14;67.04;100021.66;5031142;28;20040;-58
2022/08/15 04:00:25;;;;;;;22.67;14.32;;;;;;;21.19;67.21;100027.47;5031298;28;20041;-57
2022/08/15 04:03:28;;;;;;;22.85;14.18;;;;;;;21.18;67.43;100033.69;5044687;28;20520;-59
2022/08/15 04:05:59;;;;;;;15.85;12.73;;;;;;;21.22;67.10;100031.66;5027854;28;20524;-58
2022/08/15 04:08:30;;;;;;;20.55;13.77;;;;;;;21.23;67.04;100031.56;5014596;28;20096;-57
2022/08/15 04:10:58;;;;;;;26.65;15.60;;;;;;;21.25;67.21;100037.56;5031499;28;20047;-58
2022/08/15 04:13:24;;;;;;;18.65;14.55;;;;;;;21.10;67.09;100010.41;5014630;28;20044;-58
2022/08/15 04:15:53;;;;;;;19.98;14.25;;;;;;;21.13;67.20;100010.22;5030914;28;20511;-58
2022/08/15 04:18:20;;;;;;;20.77;14.95;;;;;;;21.35;67.12;100032.47;5031371;28;20132;-58
2022/08/15 04:20:48;;;;;;;27.35;16.42;;;;;;;21.36;66.77;100029.69;5047305;28;20493;-58
2022/08/15 04:23:14;;;;;;;24.80;15.10;;;;;;;21.36;66.75;100029.69;5032634;28;20056;-57
2022/08/15 04:25:41;;;;;;;50.25;16.48;;;;;;;21.42;66.77;100031.06;5012474;28;20033;-57
2022/08/15 04:28:10;;;;;;;43.65;17.02;;;;;;;21.45;66.63;100028.19;5030997;28;20140;-58
2022/08/15 04:30:41;;;;;;;33.97;13.57;;;;;;;21.51;66.49;100028.56;5010994;28;20042;-58
2022/08/15 04:33:13;;;;;;;37.60;16.58;;;;;;;21.56;66.33;100031.72;5027976;28;20069;-57
2022/08/15 04:35:46;;;;;;;22.40;13.95;;;;;;;21.59;66.34;100029.81;5049317;28;20045;-57
2022/08/15 04:38:13;;;;;;;23.33;15.82;;;;;;;21.63;66.31;100037.41;5032143;28;20037;-58
2022/08/15 04:40:40;;;;;;;33.72;17.98;;;;;;;21.68;66.18;100029.97;5013945;28;20041;-58
2022/08/15 04:43:06;;;;;;;31.42;16.65;;;;;;;21.50;66.01;99994.31;5014742;28;20429;-58
2022/08/15 04:45:34;;;;;;;21.00;14.13;;;;;;;21.87;65.55;100034.75;5012637;28;20420;-58
2022/08/15 04:48:04;;;;;;;25.60;15.88;;;;;;;21.83;65.25;100022.66;5014338;28;20128;-59
2022/08/15 04:50:34;;;;;;;21.58;13.52;;;;;;;22.00;65.17;100026.72;5030752;28;20045;-59
2022/08/15 04:53:07;;;;;;;20.75;14.48;;;;;;;22.09;64.85;100032.16;5030679;28;20045;-58
2022/08/15 04:55:35;;;;;;;24.05;16.20;;;;;;;22.17;64.79;100035.09;5022782;28;20099;-58
2022/08/15 04:58:03;;;;;;;21.55;14.10;;;;;;;22.25;64.51;100037.97;5030407;28;20052;-58
2022/08/15 05:00:31;;;;;;;22.40;14.65;;;;;;;22.34;64.25;100037.28;5021448;28;20050;-58
2022/08/15 05:03:20;;;;;;;19.25;15.25;;;;;;;22.43;63.95;100040.19;5026788;28;20124;-57
2022/08/15 05:05:56;;;;;;;18.70;14.52;;;;;;;22.46;63.87;100043.41;5029574;28;20092;-58
2022/08/15 05:08:26;;;;;;;20.38;14.43;;;;;;;22.48;63.84;100049.47;5030464;28;20048;-58
2022/08/15 05:10:56;;;;;;;17.17;12.98;;;;;;;22.52;64.00;100031.50;5070813;28;20060;-58
2022/08/15 05:13:26;;;;;;;22.85;14.25;;;;;;;22.57;63.66;100038.13;5033729;28;20033;-58
2022/08/15 05:15:53;;;;;;;21.92;14.75;;;;;;;22.64;63.47;100033.19;5034792;28;20045;-57
2022/08/15 05:18:21;;;;;;;21.88;14.82;;;;;;;22.73;63.25;100037.81;5028424;28;20068;-58
2022/08/15 05:20:48;;;;;;;26.20;14.82;;;;;;;22.83;63.23;100035.25;5031522;28;20052;-58
2022/08/15 05:23:16;;;;;;;18.30;14.15;;;;;;;22.92;62.68;100030.09;5029882;28;20041;-58
2022/08/15 05:25:57;;;;;;;23.83;15.63;;;;;;;22.97;62.46;100040.34;5020846;28;20049;-55
2022/08/15 05:28:23;;;;;;;20.45;16.63;;;;;;;23.03;62.26;100032.69;5029531;28;20069;-57
2022/08/15 05:30:51;;;;;;;28.40;15.65;;;;;;;23.12;62.14;100036.44;5019714;28;20038;-57
2022/08/15 05:33:20;;;;;;;24.10;15.45;;;;;;;23.23;61.67;100031.13;5009004;28;20038;-55
2022/08/15 05:35:49;;;;;;;26.55;16.98;;;;;;;23.35;61.20;100037.22;5021082;28;20045;-57
2022/08/15 05:38:22;;;;;;;22.02;15.23;;;;;;;23.44;60.99;100031.19;5028105;28;20045;-57
2022/08/15 05:40:56;;;;;;;26.52;15.63;;;;;;;23.55;60.76;100033.81;5029657;28;20076;-57
2022/08/15 05:43:41;;;;;;;22.55;15.10;;;;;;;23.73;60.26;100026.13;5009976;28;20053;-57
2022/08/15 05:46:27;;;;;;;22.77;15.77;;;;;;;23.71;59.37;99986.41;4998541;28;20038;-58
2022/08/15 05:49:21;;;;;;;28.40;17.55;;;;;;;24.06;58.71;100024.16;5009790;28;20125;-57
2022/08/15 05:52:04;;;;;;;27.75;17.05;;;;;;;24.21;58.23;100026.50;5035946;28;20148;-58
2022/08/15 05:54:54;;;;;;;31.48;19.35;;;;;;;24.35;57.50;100036.78;5029713;28;20048;-57
2022/08/15 05:57:30;;;;;;;23.95;15.75;;;;;;;24.49;57.21;100029.28;5025196;28;20048;-62
2022/08/15 06:00:09;;;;;;;24.45;16.80;;;;;;;24.65;56.66;100025.34;5008299;28;20052;-58
2022/08/15 06:02:49;;;;;;;23.60;18.08;;;;;;;24.74;56.04;100020.06;5009546;28;20050;-63
2022/08/15 06:05:27;;;;;;;25.42;17.38;;;;;;;24.87;55.63;100022.44;5006994;28;20037;-59
2022/08/15 06:07:58;;;;;;;24.25;16.02;;;;;;;24.99;54.79;100025.88;5022534;28;20057;-61
2022/08/15 06:10:27;;;;;;;22.73;15.77;;;;;;;25.12;54.10;100029.16;4988519;28;20037;-58
2022/08/15 06:12:59;;;;;;;;;;;;;;;25.31;53.46;100026.53;5030411;28;20049;-57
2022/08/15 06:15:51;;;;;;;27.85;15.50;;;;;;;25.50;53.02;100025.69;5052593;28;20337;-56
2022/08/15 06:18:18;;;;;;;23.65;17.42;;;;;;;25.68;52.87;100024.91;5043086;28;20037;-60
2022/08/15 06:21:19;;;;;;;23.63;17.25;;;;;;;25.93;51.85;100025.28;5013760;28;20060;-57
2022/08/15 06:23:54;;;;;;;26.13;16.85;;;;;;;26.31;50.51;100027.91;5024556;28;20069;-58
2022/08/15 06:26:47;;;;;;;22.58;16.02;;;;;;;27.10;48.66;100032.81;5028799;28;20045;-54
2022/08/15 06:29:27;;;;;;;27.23;16.70;;;;;;;28.09;47.00;100029.09;5011077;28;20064;-58
2022/08/15 06:32:32;;;;;;;20.63;15.82;;;;;;;29.19;44.33;100023.84;5012754;28;20060;-56
2022/08/15 06:35:09;;;;;;;21.95;15.45;;;;;;;30.28;42.64;100033.31;5010177;28;20044;-56
2022/08/15 06:37:51;;;;;;;21.25;15.80;;;;;;;31.31;40.43;100034.97;5041027;28;20040;-56
2022/08/15 06:40:28;;;;;;;21.20;15.15;;;;;;;32.28;39.04;100039.63;5026164;28;20049;-57
2022/08/15 06:42:57;;;;;;;19.90;14.48;;;;;;;33.04;37.07;100043.81;5017793;28;20045;-57
2022/08/15 06:45:45;;;;;;;16.15;13.85;;;;;;;33.54;35.06;100037.56;5026258;28;20048;-59
2022/08/15 06:48:15;;;;;;;21.58;13.82;;;;;;;34.13;34.01;100037.28;5032971;28;20053;-57
2022/08/15 06:50:53;;;;;;;16.27;13.07;;;;;;;35.10;32.60;100040.81;5013120;28;20100;-58
2022/08/15 06:53:30;;;;;;;12.88;11.38;;;;;;;36.18;31.10;100037.09;5014483;28;20454;-58
2022/08/15 06:56:29;;;;;;;15.35;12.50;;;;;;;37.18;29.70;100039.34;5017640;28;20045;-57
2022/08/15 06:59:13;;;;;;;15.60;10.20;;;;;;;37.92;27.85;100044.09;5016259;28;20489;-57
2022/08/15 07:02:17;;;;;;;14.93;10.73;;;;;;;38.82;26.30;100047.22;5030245;28;20518;-56
2022/08/15 07:04:54;;;;;;;10.70;9.38;;;;;;;39.51;25.22;100040.50;5028683;28;20412;-58
2022/08/15 07:07:46;;;;;;;11.57;9.68;;;;;;;39.62;24.10;100040.50;5033127;28;20501;-60
2022/08/15 07:10:33;;;;;;;10.43;8.25;;;;;;;40.26;23.75;100047.06;5035684;28;20048;-59
2022/08/15 07:13:12;;;;;;;9.63;7.75;;;;;;;41.19;22.84;100049.66;5031136;28;20513;-57
2022/08/15 07:15:58;;;;;;;11.40;7.47;;;;;;;41.81;21.92;100047.00;5031193;28;20046;-59
2022/08/15 07:18:28;;;;;;;8.23;6.57;;;;;;;42.15;20.90;100048.66;5039753;28;20041;-58
2022/08/15 07:21:19;;;;;;;6.70;5.82;;;;;;;41.84;20.51;100047.31;5011269;28;20041;-59
2022/08/15 07:24:05;;;;;;;6.85;6.20;;;;;;;42.56;19.94;100052.00;5045203;28;20536;-62
2022/08/15 07:26:40;;;;;;;8.23;5.57;;;;;;;43.17;18.98;100045.44;5045568;28;20054;-59
2022/08/15 07:29:38;;;;;;;7.35;4.90;;;;;;;43.65;18.83;100046.50;5028900;28;20041;-60
2022/08/15 07:32:13;;;;;;;8.05;5.32;;;;;;;43.94;18.38;100049.75;4999333;28;20591;-58
2022/08/15 07:34:57;;;;;;;5.45;4.95;;;;;;;43.97;17.91;100050.06;5029965;28;20042;-58
2022/08/15 07:37:24;;;;;;;5.93;4.22;;;;;;;44.03;17.54;100034.47;5031259;28;20493;-60
2022/08/15 07:39:58;;;;;;;;;;;;;;;43.30;18.00;100042.28;5028433;28;20480;-58
2022/08/15 07:42:28;;;;;;;4.18;3.88;;;;;;;43.77;17.59;100042.47;5031652;28;19917;-60
2022/08/15 07:44:58;;;;;;;6.28;4.30;;;;;;;44.53;17.27;100042.22;5028562;28;20042;-59
2022/08/15 07:47:28;;;;;;;7.13;6.43;;;;;;;45.26;16.42;100037.59;5031233;28;20049;-59
2022/08/15 07:50:13;;;;;;;4.35;3.72;;;;;;;44.89;16.49;100035.81;5014161;28;20049;-58
2022/08/15 07:52:40;;;;;;;3.90;3.60;;;;;;;44.45;15.98;100046.28;4995829;28;20136;-58
2022/08/15 07:55:18;;;;;;;3.80;3.50;;;;;;;42.82;17.46;100014.88;5022965;28;20084;-59
2022/08/15 07:58:02;;;;;;;4.93;4.20;;;;;;;44.44;16.78;100027.38;5030925;28;20129;-57
2022/08/15 08:00:34;;;;;;;4.82;4.10;;;;;;;45.36;16.00;100037.63;5029749;28;20052;-58
2022/08/15 08:03:13;;;;;;;8.43;3.90;;;;;;;45.69;15.68;100037.13;5043829;28;20228;-59
2022/08/15 08:05:59;;;;;;;5.85;4.47;;;;;;;45.94;15.28;100039.91;5028530;28;20099;-58
2022/08/15 08:08:49;;;;;;;6.32;3.92;;;;;;;46.13;14.58;100042.88;5010449;28;20417;-58
2022/08/15 08:11:24;;;;;;;6.10;3.65;;;;;;;45.74;15.46;100039.06;5028373;28;20124;-60
2022/08/15 08:14:18;;;;;;;4.43;4.03;;;;;;;46.15;15.02;100020.63;5027801;28;20042;-58
2022/08/15 08:16:54;;;;;;;6.43;3.90;;;;;;;44.69;15.52;100022.88;5028386;28;20045;-59
2022/08/15 08:19:27;;;;;;;7.53;3.92;;;;;;;42.92;16.95;100036.91;5029012;28;20120;-58
2022/08/15 08:22:08;;;;;;;5.65;3.50;;;;;;;42.83;17.27;100027.47;5030492;28;20124;-59
2022/08/15 08:24:35;;;;;;;7.95;3.80;;;;;;;43.49;16.98;100026.34;5028573;28;20048;-58
2022/08/15 08:27:07;;;;;;;6.82;5.55;;;;;;;43.87;16.48;100026.13;5030948;28;20065;-59
2022/08/15 08:29:50;;;;;;;6.35;4.20;;;;;;;44.25;16.07;100030.53;5022600;28;20157;-58
2022/08/15 08:32:19;;;;;;;5.68;4.47;;;;;;;44.95;16.06;100028.44;5030959;28;20041;-60
2022/08/15 08:34:49;;;;;;;5.32;3.90;;;;;;;45.50;15.72;100020.34;5030787;28;20048;-59
2022/08/15 08:37:49;;;;;;;3.80;3.05;;;;;;;44.14;15.67;100020.56;5042539;28;20455;-59
2022/08/15 08:43:54;;;;;;;5.88;4.40;;;;;;;42.73;17.22;100011.78;5037351;28;20041;-58
2022/08/15 08:46:35;;;;;;;5.85;3.25;;;;;;;42.11;17.01;100014.69;5011077;28;20037;-59
2022/08/15 08:49:33;;;;;;;6.88;3.22;;;;;;;41.35;18.51;100021.56;5012186;28;20083;-60
2022/08/15 08:52:19;;;;;;;7.55;4.35;;;;;;;40.52;18.71;100013.84;5025293;28;20041;-58
2022/08/15 08:55:00;;;;;;;5.00;3.33;;;;;;;41.32;18.54;99989.31;5011443;28;20046;-58
2022/08/15 08:57:40;;;;;;;5.07;3.97;;;;;;;42.90;17.18;100006.22;5027742;28;20517;-58
2022/08/15 09:00:12;;;;;;;3.75;3.40;;;;;;;43.99;15.46;100012.25;5026811;28;20616;-58
2022/08/15 09:02:46;;;;;;;8.70;4.25;;;;;;;44.70;14.90;100013.50;5029716;28;20042;-59
2022/08/15 09:05:28;;;;;;;5.78;3.85;;;;;;;44.11;15.21;100014.81;5029840;28;20102;-58
2022/08/15 09:07:59;;;;;;;6.82;6.03;;;;;;;43.58;15.69;99997.41;5030010;28;20044;-59
2022/08/15 09:10:32;;;;;;;7.53;4.00;;;;;;;42.91;16.35;99994.22;5020844;28;20038;-58
2022/08/15 09:15:45;;;;;;;6.65;3.67;;;;;;;42.19;17.01;100006.06;5028894;28;20045;-58
2022/08/15 09:18:16;;;;;;;4.97;3.33;;;;;;;41.90;16.88;99996.34;5029753;28;20137;-58
2022/08/15 09:20:42;;;;;;;4.05;3.53;;;;;;;42.16;17.29;99970.22;5024064;28;20057;-59
2022/08/15 09:23:11;;;;;;;6.27;3.20;;;;;;;43.46;16.34;100004.91;5012244;28;20050;-58
2022/08/15 09:25:51;;;;;;;3.65;3.00;;;;;;;43.38;17.07;100006.22;5030583;28;20084;-57
2022/08/15 09:28:24;;;;;;;4.63;3.85;;;;;;;42.61;16.69;100003.66;5012970;28;20046;-58
2022/08/15 09:30:51;;;;;;;4.07;3.60;;;;;;;41.35;17.30;100007.91;5021275;28;20073;-59
2022/08/15 09:33:49;;;;;;;3.67;3.38;;;;;;;40.56;17.43;100004.13;5013603;28;20456;-60
2022/08/15 09:36:23;;;;;;;4.68;3.70;;;;;;;40.91;17.79;100004.06;5055655;28;20068;-59
2022/08/15 09:38:58;;;;;;;4.50;4.07;;;;;;;42.62;16.90;100002.56;5030961;28;20076;-61
2022/08/15 09:42:01;;;;;;;6.22;4.20;;;;;;;44.83;15.59;100005.88;5028876;28;20060;-61
2022/08/15 09:45:00;;;;;;;4.82;4.43;;;;;;;46.11;14.29;100009.34;5004187;28;20075;-60
2022/08/15 09:47:48;;;;;;;4.38;3.58;;;;;;;44.45;13.82;100009.81;5015986;28;20037;-58
2022/08/15 09:50:38;;;;;;;7.07;3.55;;;;;;;42.90;15.39;100001.59;5023669;28;20059;-56
2022/08/15 09:53:29;;;;;;;4.30;3.90;;;;;;;43.64;15.10;100003.75;5030788;28;20118;-60
2022/08/15 09:56:02;;;;;;;4.10;3.55;;;;;;;42.74;15.14;99974.31;5021055;28;20095;-60
2022/08/15 09:58:31;;;;;;;7.55;3.80;;;;;;;42.03;16.16;99992.44;5021337;28;20033;-48
2022/08/15 10:01:12;;;;;;;6.70;4.20;;;;;;;41.39;16.70;99987.25;5021733;28;20048;-49
2022/08/15 10:03:49;;;;;;;6.15;3.40;;;;;;;40.68;17.31;99989.66;5026536;28;20045;-48
2022/08/15 10:06:23;;;;;;;6.50;4.40;;;;;;;40.89;16.99;99989.00;5025054;28;20136;-54
2022/08/15 10:08:52;;;;;;;6.97;5.03;;;;;;;42.77;15.81;99990.19;5024997;28;20037;-51
2022/08/15 10:11:24;;;;;;;6.43;5.82;;;;;;;44.65;14.42;99996.16;5032562;28;20572;-47
2022/08/15 10:14:06;;;;;;;6.15;3.90;;;;;;;45.19;14.31;99995.84;5029961;28;20139;-47
2022/08/15 10:16:41;;;;;;;5.15;3.78;;;;;;;43.20;15.13;99986.59;5030018;28;20500;-46
2022/08/15 10:19:25;;;;;;;5.60;3.67;;;;;;;41.11;16.24;99981.00;5023063;28;20029;-48
2022/08/15 10:21:54;;;;;;;4.88;3.40;;;;;;;38.94;18.22;99977.47;5027776;28;20131;-52
2022/08/15 10:24:20;;;;;;;4.60;3.78;;;;;;;38.16;19.06;99974.53;5035658;28;20049;-47
2022/08/15 10:27:10;;;;;;;5.32;3.38;;;;;;;37.53;19.86;99981.97;5028018;28;20168;-40
2022/08/15 10:29:40;;;;;;;6.43;3.20;;;;;;;37.04;20.36;99971.81;5021340;28;20427;-47
2022/08/15 10:32:22;;;;;;;4.95;3.47;;;;;;;36.53;21.10;99978.06;5026659;28;20037;-46
2022/08/15 10:35:09;;;;;;;4.20;3.15;;;;;;;36.29;21.43;99978.75;5028203;28;20041;-45
2022/08/15 10:37:56;;;;;;;6.55;3.13;;;;;;;36.45;21.25;99983.69;5028786;28;20046;-46
2022/08/15 10:40:42;;;;;;;4.00;3.23;;;;;;;36.49;20.83;99972.22;5026766;28;20452;-46
2022/08/15 10:43:20;;;;;;;4.63;3.00;;;;;;;36.33;21.13;99977.25;5009157;28;20670;-46
2022/08/15 10:45:46;;;;;;;;;;;;;;;35.87;21.64;99980.03;5021062;28;20050;-48
2022/08/15 10:48:21;;;;;;;3.92;2.88;;;;;;;35.32;22.55;99968.53;5029639;28;20380;-47
2022/08/15 10:51:13;;;;;;;4.93;3.05;;;;;;;34.61;23.04;99980.69;5028883;28;20072;-46
2022/08/15 10:54:09;;;;;;;5.03;3.03;;;;;;;34.06;24.03;99982.44;5029311;28;20165;-46
2022/08/15 10:56:38;;;;;;;3.45;2.70;;;;;;;33.87;24.04;99969.59;5015070;28;20137;-49
2022/08/15 10:59:09;;;;;;;5.28;3.22;;;;;;;33.90;24.35;99969.22;5027909;28;20128;-49
2022/08/15 11:01:36;;;;;;;9.40;3.30;;;;;;;34.01;24.15;99966.84;5012293;28;20429;-49
2022/08/15 11:04:07;;;;;;;7.22;3.03;;;;;;;34.08;24.20;99971.41;5040566;28;20140;-44
2022/08/15 11:06:43;;;;;;;4.72;2.85;;;;;;;34.59;23.60;99940.41;5029321;28;20140;-47
2022/08/15 11:09:17;;;;;;;5.00;3.33;;;;;;;35.63;23.33;99968.75;5025614;28;22181;-46
2022/08/15 11:11:52;;;;;;;8.65;3.30;;;;;;;37.08;22.18;99970.31;5024910;28;20123;-48
2022/08/15 11:14:30;;;;;;;6.40;3.35;;;;;;;37.87;21.40;99965.19;5039688;28;20045;-46
2022/08/15 11:16:59;;;;;;;6.80;3.80;;;;;;;37.95;20.99;99970.34;5006834;28;20643;-47
2022/08/15 11:19:30;;;;;;;6.53;3.85;;;;;;;37.60;21.40;99972.72;5017533;28;20124;-50
2022/08/15 11:22:02;;;;;;;10.85;6.05;;;;;;;37.72;21.40;99970.13;5017374;28;20041;-46
2022/08/15 11:24:33;;;;;;;6.28;4.32;;;;;;;37.64;21.34;99946.81;5024537;28;20125;-46
2022/08/15 11:27:17;;;;;;;14.40;8.88;;;;;;;37.34;21.22;99976.44;5011601;28;20072;-47
2022/08/15 11:29:44;;;;;;;8.85;4.70;;;;;;;38.20;20.74;99966.78;5008385;28;20106;-46
2022/08/15 11:32:21;;;;;;;5.65;4.78;;;;;;;40.14;19.32;99972.66;5030718;28;20064;-48
2022/08/15 11:34:47;;;;;;;9.48;5.10;;;;;;;41.74;18.11;99958.91;5021531;28;20506;-48
2022/08/15 11:37:12;;;;;;;7.78;4.40;;;;;;;42.62;17.25;99969.75;5013544;28;20046;-44
2022/08/15 11:39:42;;;;;;;7.43;4.75;;;;;;;43.45;16.69;99975.88;5017549;28;20092;-45
2022/08/15 11:42:10;;;;;;;7.38;4.90;;;;;;;43.94;16.13;99973.03;5015750;28;20099;-47
2022/08/15 11:44:49;;;;;;;6.05;5.05;;;;;;;44.21;15.61;99966.34;5033265;28;20128;-50
2022/08/15 11:47:16;;;;;;;6.90;4.78;;;;;;;43.76;16.31;99968.78;5032941;28;20049;-46
2022/08/15 11:49:48;;;;;;;5.45;4.95;;;;;;;43.56;16.09;99968.59;5062501;28;20049;-48
2022/08/15 11:52:22;;;;;;;10.05;5.45;;;;;;;42.74;16.24;99934.09;5015986;28;20045;-46
2022/08/15 11:55:16;;;;;;;7.45;5.57;;;;;;;41.59;17.12;99948.56;5017172;28;20045;-48
2022/08/15 11:57:48;;;;;;;14.27;5.90;;;;;;;41.06;17.85;99950.88;5030140;28;20045;-47
2022/08/15 12:00:29;;;;;;;10.13;5.30;;;;;;;40.94;17.71;99950.91;5025408;28;20048;-49